createdAt,value
2022-12-25T00:02:03.834Z,29.50
2022-12-25T00:07:25.959Z,30.90
2022-12-25T00:12:47.568Z,32.00
2022-12-25T00:18:09.721Z,31.80
2022-12-25T00:23:32.471Z,35.40
2022-12-25T00:28:56.223Z,29.90
2022-12-25T00:34:18.217Z,15.80
2022-12-25T00:39:40.547Z,18.80
2022-12-25T00:45:02.579Z,19.60
2022-12-25T00:50:24.416Z,18.30
2022-12-25T00:55:52.135Z,17.90
2022-12-25T01:01:14.318Z,17.90
2022-12-25T01:06:36.514Z,18.50
2022-12-25T01:11:58.353Z,12.90
2022-12-25T01:17:20.126Z,15.00
2022-12-25T01:22:42.709Z,18.10
2022-12-25T01:28:05.136Z,14.30
2022-12-25T01:33:27.064Z,12.40
2022-12-25T01:38:52.511Z,22.80
2022-12-25T01:44:13.937Z,20.40
2022-12-25T01:49:38.170Z,24.80
2022-12-25T01:55:04.103Z,28.80
2022-12-25T02:00:25.663Z,22.50
2022-12-25T02:05:48.275Z,22.80
2022-12-25T02:11:30.373Z,23.90
2022-12-25T02:17:00.173Z,23.40
2022-12-25T02:22:46.957Z,23.30
2022-12-25T02:28:27.542Z,20.50
2022-12-25T02:34:16.066Z,23.00
2022-12-25T02:39:56.627Z,21.00
2022-12-25T02:45:43.733Z,26.10
2022-12-25T02:51:27.095Z,22.40
2022-12-25T02:57:08.682Z,20.60
2022-12-25T03:02:50.756Z,31.20
2022-12-25T03:08:20.534Z,24.00
2022-12-25T03:13:43.973Z,20.90
2022-12-25T03:19:25.532Z,28.50
2022-12-25T03:25:05.865Z,24.50
2022-12-25T03:30:55.965Z,24.30
2022-12-25T03:36:28.562Z,23.20
2022-12-25T03:42:11.964Z,25.30
2022-12-25T03:47:52.462Z,23.60
2022-12-25T03:53:39.377Z,23.50
2022-12-25T03:59:23.836Z,26.60
2022-12-25T04:05:04.381Z,25.00
2022-12-25T04:10:45.280Z,25.70
2022-12-25T04:16:26.255Z,25.40
2022-12-25T04:22:06.967Z,30.60
2022-12-25T04:27:48.263Z,34.20
2022-12-25T04:33:29.058Z,32.20
2022-12-25T04:38:51.300Z,27.50
2022-12-25T04:44:13.734Z,30.90
2022-12-25T04:49:35.558Z,20.30
2022-12-25T04:54:57.486Z,22.40
2022-12-25T05:00:19.927Z,24.20
2022-12-25T05:05:41.945Z,23.20
2022-12-25T05:11:08.963Z,30.20
2022-12-25T05:16:31.054Z,29.00
2022-12-25T05:21:53.748Z,28.90
2022-12-25T05:27:15.980Z,29.40
2022-12-25T05:32:37.709Z,28.00
2022-12-25T05:37:59.545Z,22.30
2022-12-25T05:43:21.785Z,29.20
2022-12-25T05:48:43.904Z,28.60
2022-12-25T05:54:05.726Z,27.20
2022-12-25T05:59:31.368Z,26.70
2022-12-25T06:04:52.899Z,28.20
2022-12-25T06:10:14.626Z,24.40
2022-12-25T06:15:40.287Z,25.60
2022-12-25T06:21:07.380Z,20.40
2022-12-25T06:26:29.014Z,21.10
2022-12-25T06:31:57.289Z,20.80
2022-12-25T06:37:20.046Z,20.40
2022-12-25T06:42:42.265Z,20.10
2022-12-25T06:48:04.193Z,19.00
2022-12-25T06:53:26.304Z,18.60
2022-12-25T06:58:50.542Z,19.70
2022-12-25T07:04:23.022Z,24.00
2022-12-25T07:09:44.948Z,21.50
2022-12-25T07:15:08.086Z,21.00
2022-12-25T07:20:30.322Z,18.80
2022-12-25T07:25:56.094Z,34.00
2022-12-25T07:31:18.708Z,43.00
2022-12-25T07:36:40.816Z,26.50
2022-12-25T07:42:02.945Z,20.60
2022-12-25T07:47:25.044Z,22.90
2022-12-25T07:52:47.159Z,23.40
2022-12-25T07:58:09.352Z,24.30
2022-12-25T08:03:32.125Z,22.90
2022-12-25T08:08:54.384Z,30.60
2022-12-25T08:14:16.525Z,25.00
2022-12-25T08:19:38.475Z,20.90
2022-12-25T08:25:00.389Z,21.00
2022-12-25T08:30:22.334Z,20.90
2022-12-25T08:35:44.457Z,16.50
2022-12-25T08:41:06.574Z,16.90
2022-12-25T08:46:28.720Z,16.90
2022-12-25T08:51:50.837Z,15.40
2022-12-25T08:57:13.072Z,15.70
2022-12-25T09:02:35.071Z,18.20
2022-12-25T09:07:57.126Z,20.20
2022-12-25T09:13:19.057Z,19.10
2022-12-25T09:18:41.218Z,24.20
2022-12-25T09:24:04.543Z,18.60
2022-12-25T09:29:26.248Z,22.20
2022-12-25T09:34:48.080Z,22.00
2022-12-25T09:40:15.580Z,22.00
2022-12-25T09:45:38.971Z,24.70
2022-12-25T09:51:08.759Z,22.00
2022-12-25T09:56:32.654Z,22.50
2022-12-25T10:02:16.769Z,19.90
2022-12-25T10:07:50.937Z,19.00
2022-12-25T10:13:19.096Z,22.60
2022-12-25T10:18:59.479Z,25.20
2022-12-25T10:24:41.375Z,26.70
2022-12-25T10:30:14.468Z,23.00
2022-12-25T10:35:38.183Z,17.60
2022-12-25T10:41:02.908Z,17.00
2022-12-25T10:46:27.873Z,18.20
2022-12-25T10:51:50.093Z,16.80
2022-12-25T10:57:17.741Z,15.80
2022-12-25T11:02:40.776Z,13.50
2022-12-25T11:08:03.895Z,14.80
2022-12-25T11:13:27.947Z,13.90
2022-12-25T11:18:52.591Z,15.40
2022-12-25T11:24:22.465Z,12.30
2022-12-25T11:29:47.791Z,12.70
2022-12-25T11:35:13.025Z,14.20
2022-12-25T11:40:56.527Z,13.10
2022-12-25T11:46:39.597Z,14.20
2022-12-25T11:52:02.004Z,10.70
2022-12-25T11:57:26.757Z,11.50
2022-12-25T12:02:58.867Z,9.90
2022-12-25T12:08:20.967Z,15.20
2022-12-25T12:13:57.588Z,13.00
2022-12-25T12:19:29.636Z,12.00
2022-12-25T12:25:05.108Z,15.60
2022-12-25T12:30:31.453Z,10.60
2022-12-25T12:35:53.732Z,10.10
2022-12-25T12:41:16.510Z,14.60
2022-12-25T12:46:40.104Z,13.80
2022-12-25T12:52:10.591Z,15.20
2022-12-25T12:57:39.326Z,13.90
2022-12-25T13:03:16.460Z,13.20
2022-12-25T13:08:58.062Z,12.00
2022-12-25T13:14:22.880Z,13.80
2022-12-25T13:19:45.135Z,24.50
2022-12-25T13:25:18.996Z,19.40
2022-12-25T13:30:40.934Z,22.50
2022-12-25T13:36:04.465Z,16.70
2022-12-25T13:42:03.527Z,143.20
2022-12-25T13:53:16.286Z,139.90
2022-12-25T13:58:39.756Z,62.40
2022-12-25T14:04:01.851Z,49.20
2022-12-25T14:09:24.178Z,48.10
2022-12-25T14:14:46.379Z,42.40
2022-12-25T14:20:22.468Z,37.90
2022-12-25T14:25:46.087Z,22.40
2022-12-25T14:31:11.588Z,17.70
2022-12-25T14:36:34.397Z,24.50
2022-12-25T14:41:56.827Z,50.90
2022-12-25T14:47:20.889Z,48.50
2022-12-25T14:52:43.693Z,45.10
2022-12-25T14:58:06.306Z,43.40
2022-12-25T15:03:34.535Z,44.80
2022-12-25T15:09:01.989Z,41.10
2022-12-25T15:14:25.080Z,37.10
2022-12-25T15:19:46.990Z,57.60
2022-12-25T15:25:14.438Z,44.50
2022-12-25T15:30:39.418Z,56.00
2022-12-25T15:36:01.117Z,64.00
2022-12-25T15:41:44.235Z,52.40
2022-12-25T15:47:06.560Z,38.60
2022-12-25T15:52:28.531Z,37.50
2022-12-25T15:57:52.407Z,32.20
2022-12-25T16:03:14.069Z,38.40
2022-12-25T16:08:36.368Z,33.50
2022-12-25T16:13:58.163Z,34.60
2022-12-25T16:19:20.225Z,36.20
2022-12-25T16:24:42.107Z,42.90
2022-12-25T16:30:04.592Z,44.90
2022-12-25T16:35:26.518Z,39.60
2022-12-25T16:40:59.790Z,50.80
2022-12-25T16:46:22.541Z,35.10
2022-12-25T16:51:44.347Z,32.60
2022-12-25T16:57:06.226Z,26.90
2022-12-25T17:02:28.458Z,29.20
2022-12-25T17:07:51.774Z,27.40
2022-12-25T17:13:13.984Z,31.50
2022-12-25T17:18:35.900Z,28.50
2022-12-25T17:24:03.090Z,32.10
2022-12-25T17:29:25.489Z,33.40
2022-12-25T17:34:47.510Z,32.30
2022-12-25T17:40:10.219Z,35.20
2022-12-25T17:45:31.924Z,35.90
2022-12-25T17:50:53.930Z,38.50
2022-12-25T17:56:16.859Z,40.10
2022-12-25T18:01:40.149Z,30.30
2022-12-25T18:07:03.499Z,30.50
2022-12-25T18:12:25.631Z,31.10
2022-12-25T18:17:47.869Z,32.30
2022-12-25T18:23:09.590Z,31.50
2022-12-25T18:28:32.220Z,38.00
2022-12-25T18:33:54.171Z,39.70
2022-12-25T18:39:16.089Z,40.40
2022-12-25T18:44:38.814Z,32.90
2022-12-25T18:50:01.455Z,24.00
2022-12-25T18:55:23.072Z,27.10
2022-12-25T19:00:45.330Z,33.60
2022-12-25T19:06:10.161Z,35.80
2022-12-25T19:11:31.972Z,39.30
2022-12-25T19:16:57.814Z,38.60
2022-12-25T19:22:19.549Z,37.30
2022-12-25T19:27:41.429Z,38.00
2022-12-25T19:33:03.190Z,38.60
2022-12-25T19:38:25.631Z,36.80
2022-12-25T19:43:48.968Z,38.70
2022-12-25T19:49:13.384Z,36.50
2022-12-25T19:54:35.233Z,42.00
2022-12-25T19:59:57.087Z,40.00
2022-12-25T20:05:18.790Z,40.80
2022-12-25T20:10:44.635Z,44.90
2022-12-25T20:16:09.030Z,39.00
2022-12-25T20:21:31.148Z,33.50
2022-12-25T20:26:58.852Z,31.70
2022-12-25T20:32:21.458Z,41.60
2022-12-25T20:37:43.686Z,37.10
2022-12-25T20:43:05.667Z,34.00
2022-12-25T20:48:28.071Z,38.20
2022-12-25T20:53:50.243Z,32.90
2022-12-25T20:59:12.739Z,27.20
2022-12-25T21:04:35.796Z,31.00
2022-12-25T21:09:57.863Z,37.70
2022-12-25T21:15:19.927Z,24.50
2022-12-25T21:20:44.490Z,32.40
2022-12-25T21:26:11.401Z,32.50
2022-12-25T21:31:56.153Z,33.10
2022-12-25T21:37:18.156Z,32.80
2022-12-25T21:42:39.981Z,34.00
2022-12-25T21:48:03.653Z,31.70
2022-12-25T21:53:25.403Z,31.90
2022-12-25T21:58:47.584Z,29.60
2022-12-25T22:04:09.731Z,32.70
2022-12-25T22:09:32.427Z,30.40
2022-12-25T22:14:58.048Z,35.40
2022-12-25T22:20:22.584Z,31.10
2022-12-25T22:25:44.348Z,28.50
2022-12-25T22:31:07.218Z,28.60
2022-12-25T22:36:28.811Z,30.50
2022-12-25T22:41:51.020Z,23.40
2022-12-25T22:47:12.728Z,23.00
2022-12-25T22:52:34.770Z,22.10
2022-12-25T22:57:56.929Z,24.50
2022-12-25T23:03:18.967Z,26.50
2022-12-25T23:08:40.901Z,21.20
2022-12-25T23:14:21.287Z,22.80
2022-12-25T23:20:01.672Z,21.50
2022-12-25T23:25:42.168Z,25.10
2022-12-25T23:31:04.306Z,24.90
2022-12-25T23:36:26.137Z,28.90
2022-12-25T23:41:48.174Z,31.00
2022-12-25T23:47:10.083Z,28.40
2022-12-25T23:52:32.216Z,26.70
2022-12-25T23:57:54.252Z,22.30
